createdAt,value
2018-10-16T00:01:19.792Z,9.20
2018-10-16T00:05:27.952Z,9.10
2018-10-16T00:09:36.067Z,9.10
2018-10-16T00:13:44.218Z,9.00
2018-10-16T00:17:52.340Z,9.00
2018-10-16T00:22:00.495Z,9.00
2018-10-16T00:26:08.647Z,9.00
2018-10-16T00:30:16.775Z,8.90
2018-10-16T00:34:24.911Z,8.90
2018-10-16T00:38:33.048Z,8.80
2018-10-16T00:42:41.191Z,8.80
2018-10-16T00:46:49.323Z,8.80
2018-10-16T00:50:57.464Z,8.70
2018-10-16T00:55:06.200Z,8.70
2018-10-16T00:59:14.340Z,8.70
2018-10-16T01:03:22.580Z,8.70
2018-10-16T01:07:30.706Z,8.60
2018-10-16T01:11:39.260Z,8.60
2018-10-16T01:15:47.383Z,8.60
2018-10-16T01:19:55.557Z,8.50
2018-10-16T01:24:03.687Z,8.50
2018-10-16T01:32:19.719Z,8.40
2018-10-16T01:36:27.872Z,8.40
2018-10-16T01:40:35.987Z,8.40
2018-10-16T01:44:44.123Z,8.30
2018-10-16T01:48:52.260Z,8.30
2018-10-16T01:53:00.440Z,8.30
2018-10-16T01:57:08.612Z,8.20
2018-10-16T02:01:16.805Z,8.20
2018-10-16T02:05:24.983Z,8.20
2018-10-16T02:09:33.164Z,8.20
2018-10-16T02:13:41.339Z,8.10
2018-10-16T02:17:49.544Z,8.10
2018-10-16T02:21:57.736Z,8.10
2018-10-16T02:26:06.464Z,8.00
2018-10-16T02:30:14.647Z,8.00
2018-10-16T02:34:22.852Z,8.00
2018-10-16T02:38:31.020Z,7.90
2018-10-16T02:42:39.868Z,7.90
2018-10-16T02:46:48.049Z,7.90
2018-10-16T02:50:56.247Z,7.90
2018-10-16T02:55:04.810Z,7.90
2018-10-16T02:59:12.992Z,7.90
2018-10-16T03:03:21.165Z,7.90
2018-10-16T03:07:29.344Z,7.80
2018-10-16T03:11:37.560Z,7.80
2018-10-16T03:15:45.775Z,7.80
2018-10-16T03:19:53.951Z,7.80
2018-10-16T03:24:02.129Z,7.70
2018-10-16T03:28:10.300Z,7.70
2018-10-16T03:32:18.492Z,7.70
2018-10-16T03:36:26.639Z,7.70
2018-10-16T03:40:34.800Z,7.70
2018-10-16T03:44:42.983Z,7.70
2018-10-16T03:48:51.156Z,7.60
2018-10-16T03:52:59.343Z,7.60
2018-10-16T03:57:07.581Z,7.60
2018-10-16T04:01:15.723Z,7.60
2018-10-16T04:05:23.891Z,7.50
2018-10-16T04:09:32.069Z,7.50
2018-10-16T04:13:40.239Z,7.40
2018-10-16T04:17:48.408Z,7.40
2018-10-16T04:21:56.659Z,7.30
2018-10-16T04:26:04.908Z,7.30
2018-10-16T04:30:13.057Z,7.20
2018-10-16T04:34:21.233Z,7.20
2018-10-16T04:38:29.403Z,7.20
2018-10-16T04:42:37.554Z,7.20
2018-10-16T04:46:45.712Z,7.20
2018-10-16T04:50:53.875Z,7.20
2018-10-16T04:55:02.078Z,7.20
2018-10-16T04:59:10.229Z,7.20
2018-10-16T05:03:18.366Z,7.20
2018-10-16T05:07:26.520Z,7.20
2018-10-16T05:11:36.339Z,7.20
2018-10-16T05:15:44.568Z,7.20
2018-10-16T05:19:52.716Z,7.20
2018-10-16T05:24:00.918Z,7.20
2018-10-16T05:28:09.096Z,7.10
2018-10-16T05:32:17.296Z,7.10
2018-10-16T05:36:25.493Z,7.10
2018-10-16T05:44:41.633Z,7.10
2018-10-16T05:48:49.851Z,7.10
2018-10-16T05:57:05.971Z,7.20
2018-10-16T06:05:22.134Z,7.20
2018-10-16T06:09:30.368Z,7.20
2018-10-16T06:13:38.555Z,7.20
2018-10-16T06:17:46.777Z,7.20
2018-10-16T06:21:55.104Z,7.20
2018-10-16T06:26:03.368Z,7.30
2018-10-16T06:30:12.116Z,7.30
2018-10-16T06:34:20.225Z,7.30
2018-10-16T06:38:28.429Z,7.40
2018-10-16T06:42:36.784Z,7.40
2018-10-16T06:46:44.944Z,7.50
2018-10-16T06:50:53.093Z,7.50
2018-10-16T06:55:01.293Z,7.60
2018-10-16T06:59:09.436Z,7.70
2018-10-16T07:03:17.592Z,7.80
2018-10-16T07:07:25.796Z,7.80
2018-10-16T07:11:36.195Z,7.90
2018-10-16T07:15:44.358Z,8.10
2018-10-16T07:19:52.519Z,8.30
2018-10-16T07:24:00.865Z,8.40
2018-10-16T07:28:08.864Z,8.50
2018-10-16T07:32:17.051Z,8.60
2018-10-16T07:36:25.226Z,8.70
2018-10-16T07:40:33.420Z,8.90
2018-10-16T07:44:41.675Z,9.00
2018-10-16T07:48:49.843Z,9.10
2018-10-16T07:52:58.037Z,9.40
2018-10-16T07:57:06.291Z,9.60
2018-10-16T08:01:14.428Z,9.90
2018-10-16T08:05:22.612Z,10.20
2018-10-16T08:09:30.784Z,10.50
2018-10-16T08:13:38.972Z,10.80
2018-10-16T08:17:47.143Z,11.10
2018-10-16T08:21:55.313Z,11.50
2018-10-16T08:26:03.642Z,11.80
2018-10-16T08:30:11.995Z,12.10
2018-10-16T08:34:20.011Z,12.40
2018-10-16T08:38:36.667Z,12.70
2018-10-16T08:43:18.916Z,13.00
2018-10-16T08:47:38.697Z,13.30
2018-10-16T08:51:51.104Z,13.50
2018-10-16T08:55:59.324Z,13.70
2018-10-16T09:00:07.488Z,14.00
2018-10-16T09:04:15.880Z,14.30
2018-10-16T09:08:24.028Z,14.40
2018-10-16T09:12:32.232Z,14.40
2018-10-16T09:16:40.476Z,14.40
2018-10-16T09:20:48.635Z,14.80
2018-10-16T09:24:56.851Z,15.40
2018-10-16T09:29:05.152Z,15.80
2018-10-16T09:33:13.319Z,16.20
2018-10-16T09:37:21.520Z,16.60
2018-10-16T09:41:29.681Z,17.10
2018-10-16T09:45:37.856Z,17.50
2018-10-16T09:49:46.041Z,17.90
2018-10-16T09:53:54.229Z,18.30
2018-10-16T09:58:02.408Z,18.70
2018-10-16T10:02:10.586Z,19.10
2018-10-16T10:06:18.781Z,19.40
2018-10-16T10:10:26.968Z,19.80
2018-10-16T10:18:43.137Z,20.20
2018-10-16T10:22:51.356Z,20.30
2018-10-16T10:26:59.584Z,20.50
2018-10-16T10:31:07.748Z,21.00
2018-10-16T10:35:15.997Z,21.60
2018-10-16T10:39:24.131Z,21.90
2018-10-16T10:43:32.317Z,22.20
2018-10-16T10:47:40.525Z,22.60
2018-10-16T10:51:48.751Z,23.10
2018-10-16T10:55:56.912Z,23.70
2018-10-16T11:00:06.948Z,24.00
2018-10-16T11:04:15.124Z,24.10
2018-10-16T11:08:23.314Z,24.40
2018-10-16T11:12:31.488Z,24.40
2018-10-16T11:16:39.669Z,24.80
2018-10-16T11:20:47.843Z,25.00
2018-10-16T11:24:56.039Z,24.90
2018-10-16T11:29:04.224Z,24.80
2018-10-16T11:37:20.332Z,25.10
2018-10-16T11:41:28.685Z,24.80
2018-10-16T11:45:36.868Z,24.70
2018-10-16T11:54:27.438Z,24.10
2018-10-16T11:58:35.591Z,24.00
2018-10-16T12:02:43.965Z,24.60
2018-10-16T12:06:52.730Z,24.90
2018-10-16T12:11:00.955Z,24.80
2018-10-16T12:15:09.068Z,24.90
2018-10-16T12:20:24.125Z,24.80
2018-10-16T12:24:32.280Z,25.10
2018-10-16T12:28:40.437Z,25.80
2018-10-16T12:32:48.578Z,26.20
2018-10-16T12:36:56.720Z,26.20
2018-10-16T12:41:05.299Z,25.90
2018-10-16T12:45:13.778Z,25.80
2018-10-16T12:49:21.792Z,26.20
2018-10-16T12:53:29.950Z,25.90
2018-10-16T12:57:38.117Z,25.30
2018-10-16T13:01:46.269Z,24.90
2018-10-16T13:05:54.424Z,24.80
2018-10-16T13:10:02.972Z,24.90
2018-10-16T13:14:11.232Z,25.00
2018-10-16T13:18:19.282Z,25.50
2018-10-16T13:22:27.421Z,25.70
2018-10-16T13:26:35.577Z,25.20
2018-10-16T13:30:43.725Z,24.70
2018-10-16T13:34:51.891Z,24.50
2018-10-16T13:39:00.037Z,24.40
2018-10-16T13:43:08.184Z,24.20
2018-10-16T13:47:16.388Z,24.20
2018-10-16T13:51:24.542Z,24.00
2018-10-16T13:55:32.688Z,24.00
2018-10-16T13:59:40.832Z,24.00
2018-10-16T14:03:48.973Z,24.00
2018-10-16T14:07:57.260Z,24.10
2018-10-16T14:12:05.668Z,24.20
2018-10-16T14:16:13.905Z,24.30
2018-10-16T14:20:21.982Z,24.50
2018-10-16T14:24:30.209Z,24.70
2018-10-16T14:28:38.373Z,24.80
2018-10-16T14:32:46.544Z,24.80
2018-10-16T14:36:55.152Z,24.60
2018-10-16T14:41:03.313Z,24.40
2018-10-16T14:45:12.306Z,24.30
2018-10-16T14:49:20.473Z,24.30
2018-10-16T14:53:28.621Z,24.40
2018-10-16T14:57:36.865Z,24.50
2018-10-16T15:01:44.995Z,24.70
2018-10-16T15:05:53.157Z,24.90
2018-10-16T15:10:01.448Z,24.80
2018-10-16T15:14:09.517Z,24.70
2018-10-16T15:18:17.664Z,24.70
2018-10-16T15:22:25.896Z,24.60
2018-10-16T15:26:34.054Z,24.50
2018-10-16T15:30:42.175Z,24.30
2018-10-16T15:34:50.337Z,24.10
2018-10-16T15:38:58.472Z,24.00
2018-10-16T15:43:06.623Z,23.80
2018-10-16T15:47:14.797Z,23.60
2018-10-16T15:51:23.053Z,23.50
2018-10-16T15:55:31.211Z,23.30
2018-10-16T15:59:39.362Z,23.00
2018-10-16T16:03:47.493Z,22.80
2018-10-16T16:07:55.726Z,22.50
2018-10-16T16:12:03.881Z,22.20
2018-10-16T16:16:12.110Z,21.80
2018-10-16T16:20:20.148Z,21.40
2018-10-16T16:24:28.340Z,20.90
2018-10-16T16:28:36.508Z,20.50
2018-10-16T16:32:44.734Z,20.10
2018-10-16T16:36:52.902Z,19.70
2018-10-16T16:41:01.066Z,19.40
2018-10-16T16:45:10.192Z,19.10
2018-10-16T16:49:18.361Z,18.80
2018-10-16T16:53:26.534Z,18.50
2018-10-16T16:57:34.712Z,18.30
2018-10-16T17:01:42.882Z,18.00
2018-10-16T17:05:51.060Z,17.80
2018-10-16T17:09:59.398Z,17.50
2018-10-16T17:14:07.845Z,17.30
2018-10-16T17:18:16.029Z,17.10
2018-10-16T17:22:24.196Z,16.80
2018-10-16T17:30:40.341Z,16.30
2018-10-16T17:38:56.503Z,16.00
2018-10-16T17:43:05.017Z,15.90
2018-10-16T17:47:13.197Z,15.70
2018-10-16T17:51:21.343Z,15.60
2018-10-16T17:55:29.489Z,15.40
2018-10-16T17:59:37.645Z,15.30
2018-10-16T18:03:45.796Z,15.10
2018-10-16T18:07:53.936Z,15.00
2018-10-16T18:12:02.104Z,14.90
2018-10-16T18:16:10.238Z,14.80
2018-10-16T18:20:18.376Z,14.80
2018-10-16T18:24:26.578Z,14.70
2018-10-16T18:28:34.732Z,14.60
2018-10-16T18:32:42.892Z,14.50
2018-10-16T18:36:51.060Z,14.50
2018-10-16T18:40:59.224Z,14.40
2018-10-16T18:45:08.404Z,14.30
2018-10-16T18:49:16.543Z,14.30
2018-10-16T18:53:24.714Z,14.20
2018-10-16T18:57:32.883Z,14.20
2018-10-16T19:01:41.036Z,14.10
2018-10-16T19:05:49.192Z,14.10
2018-10-16T19:09:57.356Z,14.00
2018-10-16T19:14:06.001Z,14.00
2018-10-16T19:18:14.157Z,13.90
2018-10-16T19:22:22.457Z,13.80
2018-10-16T19:26:31.183Z,13.70
2018-10-16T19:30:39.356Z,13.60
2018-10-16T19:34:47.605Z,13.50
2018-10-16T19:38:56.051Z,13.40
2018-10-16T19:43:04.133Z,13.30
2018-10-16T19:47:12.518Z,13.20
2018-10-16T19:51:20.997Z,13.20
2018-10-16T19:55:29.190Z,13.10
2018-10-16T19:59:37.434Z,13.00
2018-10-16T20:03:45.548Z,12.90
2018-10-16T20:07:53.701Z,12.80
2018-10-16T20:12:02.830Z,12.70
2018-10-16T20:20:19.318Z,12.50
2018-10-16T20:24:27.409Z,12.40
2018-10-16T20:28:35.604Z,12.30
2018-10-16T20:32:43.767Z,12.20
2018-10-16T20:36:52.260Z,12.10
2018-10-16T20:41:00.433Z,12.00
2018-10-16T20:45:08.565Z,12.00
2018-10-16T20:49:16.704Z,11.90
2018-10-16T20:53:24.850Z,11.80
2018-10-16T20:57:33.042Z,11.70
2018-10-16T21:01:41.100Z,11.60
2018-10-16T21:05:49.366Z,11.50
2018-10-16T21:09:57.396Z,11.50
2018-10-16T21:14:05.541Z,11.50
2018-10-16T21:18:13.668Z,11.40
2018-10-16T21:22:21.868Z,11.30
2018-10-16T21:26:30.005Z,11.20
2018-10-16T21:30:38.138Z,11.20
2018-10-16T21:34:46.269Z,11.10
2018-10-16T21:38:54.412Z,11.00
2018-10-16T21:43:02.549Z,10.90
2018-10-16T21:47:10.757Z,10.80
2018-10-16T21:51:18.808Z,10.80
2018-10-16T21:55:26.955Z,10.70
2018-10-16T21:59:35.212Z,10.60
2018-10-16T22:03:43.212Z,10.60
2018-10-16T22:07:53.044Z,10.60
2018-10-16T22:12:01.124Z,10.50
2018-10-16T22:16:09.260Z,10.40
2018-10-16T22:20:17.416Z,10.40
2018-10-16T22:24:25.558Z,10.30
2018-10-16T22:28:33.684Z,10.30
2018-10-16T22:32:41.835Z,10.20
2018-10-16T22:46:09.073Z,10.10
2018-10-16T22:50:17.196Z,9.90
2018-10-16T22:54:25.336Z,9.90
2018-10-16T22:58:33.468Z,9.80
2018-10-16T23:02:41.937Z,9.80
2018-10-16T23:06:50.061Z,9.80
2018-10-16T23:10:58.225Z,9.70
2018-10-16T23:15:07.553Z,9.70
2018-10-16T23:19:15.754Z,9.70
2018-10-16T23:23:23.835Z,9.60
2018-10-16T23:27:31.981Z,9.60
2018-10-16T23:31:40.170Z,9.50
2018-10-16T23:35:48.273Z,9.50
2018-10-16T23:39:56.408Z,9.50
2018-10-16T23:44:04.840Z,9.40
2018-10-16T23:48:12.988Z,9.40
2018-10-16T23:52:21.152Z,9.40
2018-10-16T23:56:29.304Z,9.40
